Time;durP1;ratioP1;P1;durP2;ratioP2;P2;SDS_P1;SDS_P2;PMS_P1;PMS_P2;Temp;Humidity;BMP_temperature;BMP_pressure;BME280_temperature;BME280_humidity;BME280_pressure;Samples;Min_cycle;Max_cycle;Signal;HPM_P1;HPM_P2
2022/12/17 13:06:03;;;;;;;15.02;6.15;;;;;;;;;;6334647;22;20102;-95
2022/12/17 13:08:30;;;;;;;20.38;7.05;;;;;;;;;;6336850;22;19998;-96
2022/12/17 13:10:55;;;;;;;13.57;5.90;;;;;;;;;;6313361;22;20448;-95
2022/12/17 13:13:28;;;;;;;12.77;5.35;;;;;;;;;;6329499;22;20020;-94
2022/12/17 13:16:15;;;;;;;13.38;5.28;;;;;;;;;;6307044;22;20014;-94
2022/12/17 13:18:40;;;;;;;11.80;5.43;;;;;;;;;;6307865;22;20034;-94
2022/12/17 13:21:23;;;;;;;13.70;5.93;;;;;;;;;;6309497;22;20798;-96
2022/12/17 13:23:48;;;;;;;14.68;5.13;;;;;;;;;;6310242;22;20006;-93
2022/12/17 13:26:22;;;;;;;28.42;6.65;;;;;;;;;;6334718;22;20074;-94
2022/12/17 13:28:54;;;;;;;12.43;5.30;;;;;;;;;;6304924;22;20002;-92
2022/12/17 13:31:23;;;;;;;28.08;6.78;;;;;;;;;;6306200;22;20006;-96
2022/12/17 14:03:19;;;;;;;12.45;6.38;;;;;;;;;;6295468;22;20054;-86
2022/12/17 14:05:45;;;;;;;15.68;7.47;;;;;;;;;;6267972;22;20022;-88
2022/12/17 14:08:20;;;;;;;20.27;7.78;;;;;;;;;;6269212;22;20003;-87
2022/12/17 14:12:20;;;;;;;14.60;7.40;;;;;;;;;;6269730;22;20045;-89
2022/12/17 14:13:38;;;;;;;15.70;6.63;;;;;;;;;;6296187;22;20469;-88
2022/12/17 14:16:04;;;;;;;15.38;7.45;;;;;;;;;;6267905;22;20013;-88
2022/12/17 14:18:29;;;;;;;17.15;7.68;;;;;;;;;;6295262;22;20014;-88
2022/12/17 14:20:55;;;;;;;22.80;8.35;;;;;;;;;;6298981;22;19999;-88
2022/12/17 14:23:23;;;;;;;16.27;7.68;;;;;;;;;;6297630;22;20056;-89
2022/12/17 14:25:48;;;;;;;16.35;8.18;;;;;;;;;;6296735;22;19995;-89
2022/12/17 14:28:31;;;;;;;40.45;8.98;;;;;;;;;;6296807;22;19996;-87
2022/12/17 14:31:07;;;;;;;22.30;7.93;;;;;;;;;;6295878;22;19999;-88
2022/12/17 14:33:33;;;;;;;17.92;7.72;;;;;;;;;;6300532;22;19996;-88
2022/12/17 14:36:00;;;;;;;17.20;7.85;;;;;;;;;;6269429;22;20007;-88
2022/12/17 14:38:26;;;;;;;32.13;9.17;;;;;;;;;;6298183;22;20073;-88
2022/12/17 14:40:52;;;;;;;16.98;7.50;;;;;;;;;;6296849;22;20520;-88
2022/12/17 14:43:21;;;;;;;18.38;7.57;;;;;;;;;;6296282;22;20329;-88
2022/12/17 14:51:32;;;;;;;18.33;8.77;;;;;;;;;;6297725;22;20017;-89
2022/12/17 14:54:13;;;;;;;17.35;7.95;;;;;;;;;;6296025;22;19999;-88
2022/12/17 14:56:39;;;;;;;17.13;7.50;;;;;;;;;;6268191;22;20017;-88
2022/12/17 14:59:04;;;;;;;17.52;7.40;;;;;;;;;;6298022;22;20003;-88
2022/12/17 15:01:29;;;;;;;16.20;7.85;;;;;;;;;;6296787;22;20100;-89
2022/12/17 15:03:55;;;;;;;30.73;9.73;;;;;;;;;;6294904;22;20087;-88
2022/12/17 15:06:21;;;;;;;30.88;8.05;;;;;;;;;;6296719;22;19995;-88
2022/12/17 15:08:47;;;;;;;19.33;8.10;;;;;;;;;;6271623;22;20003;-88
2022/12/17 15:11:14;;;;;;;74.10;11.23;;;;;;;;;;6271068;22;20015;-88
2022/12/17 15:13:40;;;;;;;20.15;8.27;;;;;;;;;;6298597;22;20087;-88
2022/12/17 15:16:05;;;;;;;28.33;8.27;;;;;;;;;;6292828;22;20030;-89
2022/12/17 15:18:30;;;;;;;15.77;7.57;;;;;;;;;;6297794;22;20003;-87
2022/12/17 15:20:56;;;;;;;17.23;7.43;;;;;;;;;;6293805;22;19999;-91
2022/12/17 15:23:21;;;;;;;18.83;7.53;;;;;;;;;;6296961;22;20064;-90
2022/12/17 15:25:48;;;;;;;18.58;7.47;;;;;;;;;;6270499;22;20003;-91
2022/12/17 15:28:13;;;;;;;33.78;7.85;;;;;;;;;;6271300;22;20011;-90
2022/12/17 15:30:39;;;;;;;17.33;8.07;;;;;;;;;;6272589;22;20025;-92
2022/12/17 15:33:05;;;;;;;16.40;8.27;;;;;;;;;;6298642;22;20007;-90
2022/12/17 15:35:30;;;;;;;17.27;7.82;;;;;;;;;;6300526;22;20033;-90
2022/12/17 15:37:56;;;;;;;19.38;7.82;;;;;;;;;;6299144;22;20432;-91
2022/12/17 15:40:23;;;;;;;33.50;9.20;;;;;;;;;;6296716;22;20006;-91
2022/12/17 15:45:32;;;;;;;20.38;9.05;;;;;;;;;;6301054;22;20083;-92
2022/12/17 15:47:57;;;;;;;27.42;8.88;;;;;;;;;;6300993;22;19999;-90
2022/12/17 15:50:23;;;;;;;22.23;8.77;;;;;;;;;;6299329;22;20432;-91
2022/12/17 15:52:48;;;;;;;19.95;8.52;;;;;;;;;;6300458;22;20512;-92
2022/12/17 15:55:17;;;;;;;22.25;8.52;;;;;;;;;;6274635;22;20110;-94
2022/12/17 15:57:45;;;;;;;19.67;8.15;;;;;;;;;;6303722;22;20003;-92
2022/12/17 16:00:15;;;;;;;19.50;8.13;;;;;;;;;;6272335;22;20015;-92
2022/12/17 16:02:40;;;;;;;19.15;8.60;;;;;;;;;;6299633;22;20023;-92
2022/12/17 16:05:06;;;;;;;17.17;8.35;;;;;;;;;;6270837;22;20061;-91
2022/12/17 16:07:31;;;;;;;18.15;7.80;;;;;;;;;;6271724;22;19999;-90
2022/12/17 16:09:57;;;;;;;19.85;8.52;;;;;;;;;;6299475;22;20042;-91
2022/12/17 16:12:22;;;;;;;20.27;8.85;;;;;;;;;;6299621;22;19994;-92
2022/12/17 16:14:48;;;;;;;17.40;7.90;;;;;;;;;;6299110;22;19999;-93
2022/12/17 16:17:13;;;;;;;20.73;7.88;;;;;;;;;;6270677;22;20081;-91
2022/12/17 16:19:42;;;;;;;15.38;6.75;;;;;;;;;;6247616;22;20034;-91
2022/12/17 16:22:08;;;;;;;15.48;7.25;;;;;;;;;;6300551;22;20078;-92
2022/12/17 16:24:33;;;;;;;19.85;7.18;;;;;;;;;;6272153;22;20026;-92
2022/12/17 16:26:59;;;;;;;16.92;7.53;;;;;;;;;;6296737;22;20005;-93
2022/12/17 16:29:25;;;;;;;25.65;8.02;;;;;;;;;;6299063;22;20003;-93
2022/12/17 16:31:50;;;;;;;19.50;7.70;;;;;;;;;;6298980;22;20094;-93
2022/12/17 16:34:16;;;;;;;18.38;7.97;;;;;;;;;;6301518;22;20407;-93
2022/12/17 16:36:41;;;;;;;16.88;7.85;;;;;;;;;;6302431;22;20022;-94
2022/12/17 16:39:07;;;;;;;19.10;6.78;;;;;;;;;;6307881;22;20102;-93
2022/12/17 16:41:32;;;;;;;17.58;7.85;;;;;;;;;;6282180;22;20010;-93
2022/12/17 16:43:58;;;;;;;14.77;7.72;;;;;;;;;;6327002;22;20019;-95
2022/12/17 16:46:28;;;;;;;27.25;8.85;;;;;;;;;;6327145;22;20076;-94
2022/12/17 16:48:54;;;;;;;21.58;9.27;;;;;;;;;;6282940;22;20026;-95
2022/12/17 16:51:20;;;;;;;26.95;9.70;;;;;;;;;;6308917;22;20011;-94
2022/12/17 16:53:46;;;;;;;16.45;9.02;;;;;;;;;;6289796;22;20018;-94
2022/12/17 16:56:26;;;;;;;18.75;9.18;;;;;;;;;;6329799;22;19987;-95
2022/12/17 16:58:51;;;;;;;21.63;8.82;;;;;;;;;;6322524;22;19999;-95
2022/12/17 17:01:17;;;;;;;17.20;8.75;;;;;;;;;;6312578;22;20051;-95
2022/12/17 17:03:43;;;;;;;23.92;10.18;;;;;;;;;;6289008;22;19995;-96
2022/12/17 17:06:14;;;;;;;17.90;9.18;;;;;;;;;;6287742;22;20011;-95
2022/12/17 17:08:40;;;;;;;45.17;11.10;;;;;;;;;;6313279;22;20336;-96
2022/12/17 17:11:20;;;;;;;14.73;7.43;;;;;;;;;;6292975;22;20015;-96
2022/12/17 17:13:47;;;;;;;19.67;8.85;;;;;;;;;;6296287;22;19999;-95
2022/12/17 17:16:23;;;;;;;24.33;8.60;;;;;;;;;;6292447;22;20010;-95
2022/12/17 17:18:49;;;;;;;22.23;9.43;;;;;;;;;;6288538;22;20082;-95
2022/12/17 17:21:20;;;;;;;24.65;10.25;;;;;;;;;;6307248;22;20053;-94
2022/12/17 17:23:50;;;;;;;20.92;9.60;;;;;;;;;;6279073;22;20090;-94
2022/12/17 17:26:18;;;;;;;18.95;9.77;;;;;;;;;;6305362;22;20014;-93
2022/12/17 17:28:44;;;;;;;21.70;10.43;;;;;;;;;;6272388;22;19999;-94
2022/12/17 17:31:11;;;;;;;24.70;11.38;;;;;;;;;;6274117;22;20436;-93
2022/12/17 17:33:39;;;;;;;23.33;10.80;;;;;;;;;;6275546;22;20004;-94
2022/12/17 17:36:09;;;;;;;20.42;10.32;;;;;;;;;;6302759;22;20503;-94
2022/12/17 17:38:35;;;;;;;20.60;10.50;;;;;;;;;;6302298;22;20383;-93
2022/12/17 17:41:01;;;;;;;31.38;14.88;;;;;;;;;;6273456;22;20073;-94
2022/12/17 17:43:30;;;;;;;22.52;10.57;;;;;;;;;;6272991;22;20052;-93
2022/12/17 17:46:11;;;;;;;21.33;9.75;;;;;;;;;;6275037;22;20007;-94
2022/12/17 17:48:37;;;;;;;22.92;10.30;;;;;;;;;;6276035;22;20011;-93
2022/12/17 17:51:07;;;;;;;23.30;10.38;;;;;;;;;;6275720;22;20004;-92
2022/12/17 17:53:44;;;;;;;19.60;9.48;;;;;;;;;;6302798;22;19995;-92
2022/12/17 17:56:23;;;;;;;23.00;9.73;;;;;;;;;;6274004;22;20045;-90
2022/12/17 17:58:58;;;;;;;17.85;9.70;;;;;;;;;;6268590;22;20451;-90
2022/12/17 18:01:25;;;;;;;22.52;10.10;;;;;;;;;;6269201;22;20011;-90
2022/12/17 18:03:50;;;;;;;24.13;10.18;;;;;;;;;;6296776;22;20069;-90
2022/12/17 18:06:16;;;;;;;21.27;10.25;;;;;;;;;;6269354;22;20011;-94
2022/12/17 18:08:42;;;;;;;26.55;10.05;;;;;;;;;;6277212;22;20009;-95
2022/12/17 18:11:16;;;;;;;22.00;11.02;;;;;;;;;;6308478;22;20022;-95
2022/12/17 18:13:57;;;;;;;25.83;10.98;;;;;;;;;;6278693;22;20093;-95
2022/12/17 18:16:23;;;;;;;21.42;10.00;;;;;;;;;;6278973;22;20047;-93
2022/12/17 18:18:48;;;;;;;19.95;10.20;;;;;;;;;;6276430;22;20045;-95
2022/12/17 18:21:15;;;;;;;23.90;10.27;;;;;;;;;;6302712;22;20034;-93
2022/12/17 18:23:40;;;;;;;22.25;10.60;;;;;;;;;;6274960;22;19995;-93
2022/12/17 18:26:11;;;;;;;24.33;10.25;;;;;;;;;;6276585;22;20087;-93
2022/12/17 18:28:37;;;;;;;24.73;10.30;;;;;;;;;;6272838;22;20006;-93
2022/12/17 18:31:07;;;;;;;24.02;9.77;;;;;;;;;;6273121;22;20003;-93
2022/12/17 18:33:33;;;;;;;22.40;10.07;;;;;;;;;;6275067;22;20009;-93
2022/12/17 18:35:59;;;;;;;19.90;9.73;;;;;;;;;;6275687;22;20425;-94
2022/12/17 18:38:25;;;;;;;22.08;9.57;;;;;;;;;;6276058;22;20010;-92
2022/12/17 18:40:50;;;;;;;24.70;10.43;;;;;;;;;;6304596;22;20007;-92
2022/12/17 18:43:25;;;;;;;21.20;9.85;;;;;;;;;;6276918;22;20014;-92
2022/12/17 18:45:51;;;;;;;21.65;8.98;;;;;;;;;;6275407;22;20003;-93
2022/12/17 18:48:19;;;;;;;20.60;9.20;;;;;;;;;;6301819;22;20433;-91
2022/12/17 18:50:45;;;;;;;27.85;10.15;;;;;;;;;;6301355;22;19999;-92
2022/12/17 18:53:11;;;;;;;22.10;9.30;;;;;;;;;;6273628;22;20057;-93
2022/12/17 18:55:39;;;;;;;25.67;9.55;;;;;;;;;;6302705;22;20317;-92
2022/12/17 18:58:08;;;;;;;17.85;8.93;;;;;;;;;;6303014;22;20424;-94
2022/12/17 19:00:37;;;;;;;19.85;9.27;;;;;;;;;;6277209;22;19999;-95
2022/12/17 19:03:04;;;;;;;22.60;9.15;;;;;;;;;;6287980;22;20030;-94
2022/12/17 19:05:30;;;;;;;22.73;9.20;;;;;;;;;;6329564;22;20027;-94
2022/12/17 19:07:55;;;;;;;18.98;8.75;;;;;;;;;;6315365;22;20308;-93
2022/12/17 19:10:21;;;;;;;22.85;8.70;;;;;;;;;;6323940;22;20025;-93
2022/12/17 19:12:46;;;;;;;18.67;7.55;;;;;;;;;;6312678;22;20470;-93
2022/12/17 19:15:12;;;;;;;21.35;8.55;;;;;;;;;;6304319;22;19999;-94
2022/12/17 19:17:37;;;;;;;22.38;8.32;;;;;;;;;;6300768;22;20086;-92
2022/12/17 19:20:03;;;;;;;20.02;7.97;;;;;;;;;;6312397;22;20283;-92
2022/12/17 19:22:28;;;;;;;19.02;8.45;;;;;;;;;;6310808;22;20014;-92
2022/12/17 19:24:54;;;;;;;19.25;8.52;;;;;;;;;;6329378;22;20329;-92
2022/12/17 19:27:19;;;;;;;22.42;8.98;;;;;;;;;;6299647;22;20014;-92
2022/12/17 19:29:44;;;;;;;16.98;7.97;;;;;;;;;;6324485;22;20078;-92
2022/12/17 19:32:11;;;;;;;17.45;8.13;;;;;;;;;;6324258;22;20007;-92
2022/12/17 19:34:36;;;;;;;21.08;8.68;;;;;;;;;;6299042;22;20007;-91
2022/12/17 19:37:04;;;;;;;19.13;8.23;;;;;;;;;;6300616;22;20334;-91
2022/12/17 19:39:29;;;;;;;18.70;8.15;;;;;;;;;;6297403;22;20089;-91
2022/12/17 19:41:57;;;;;;;15.27;7.18;;;;;;;;;;6301097;22;20459;-92
2022/12/17 19:44:26;;;;;;;15.20;6.97;;;;;;;;;;6296054;22;20000;-91
2022/12/17 19:46:51;;;;;;;15.85;6.63;;;;;;;;;;6295561;22;20007;-92
2022/12/17 19:49:17;;;;;;;15.18;6.18;;;;;;;;;;6300106;22;20341;-91
2022/12/17 19:51:43;;;;;;;18.88;7.72;;;;;;;;;;6326175;22;20015;-91
2022/12/17 19:54:10;;;;;;;21.92;8.02;;;;;;;;;;6298118;22;20011;-91
2022/12/17 19:56:35;;;;;;;18.58;7.95;;;;;;;;;;6302400;22;20010;-92
2022/12/17 19:59:05;;;;;;;24.98;9.75;;;;;;;;;;6299025;22;20428;-92
2022/12/17 20:01:31;;;;;;;21.90;8.40;;;;;;;;;;6300595;22;20336;-91
2022/12/17 20:03:57;;;;;;;15.48;6.53;;;;;;;;;;6273948;22;20038;-91
2022/12/17 20:06:25;;;;;;;14.68;6.78;;;;;;;;;;6271976;22;19999;-92
2022/12/17 20:08:50;;;;;;;16.27;6.55;;;;;;;;;;6273948;22;20341;-91
2022/12/17 20:11:32;;;;;;;14.60;6.38;;;;;;;;;;6301979;22;19999;-91
2022/12/17 20:14:02;;;;;;;14.82;6.93;;;;;;;;;;6302928;22;19999;-91
2022/12/17 20:16:28;;;;;;;14.23;6.22;;;;;;;;;;6301374;22;19995;-91
2022/12/17 20:18:54;;;;;;;19.05;6.32;;;;;;;;;;6298317;22;19995;-91
2022/12/17 20:21:20;;;;;;;16.48;6.90;;;;;;;;;;6303453;22;20060;-93
2022/12/17 20:23:46;;;;;;;17.48;6.43;;;;;;;;;;6300497;22;20034;-90
2022/12/17 20:26:11;;;;;;;16.90;6.93;;;;;;;;;;6274009;22;20012;-91
2022/12/17 20:28:36;;;;;;;19.08;7.05;;;;;;;;;;6298739;22;20057;-92
2022/12/17 20:31:02;;;;;;;13.23;5.65;;;;;;;;;;6301930;22;20013;-90
2022/12/17 20:33:28;;;;;;;13.68;6.70;;;;;;;;;;6273777;22;20432;-91
2022/12/17 20:35:53;;;;;;;16.65;6.68;;;;;;;;;;6272984;22;20007;-91
2022/12/17 20:38:19;;;;;;;16.00;6.57;;;;;;;;;;6272175;22;20107;-91
2022/12/17 20:40:44;;;;;;;16.38;6.63;;;;;;;;;;6274410;22;20022;-90
2022/12/17 20:43:10;;;;;;;15.93;6.40;;;;;;;;;;6299761;22;20023;-91
2022/12/17 20:45:35;;;;;;;14.65;6.32;;;;;;;;;;6300181;22;20417;-89
2022/12/17 20:48:01;;;;;;;19.27;5.80;;;;;;;;;;6300363;22;20003;-91
2022/12/17 20:50:26;;;;;;;22.02;7.13;;;;;;;;;;6272864;22;20087;-91
2022/12/17 20:52:51;;;;;;;16.48;6.57;;;;;;;;;;6299574;22;20011;-91
2022/12/17 20:55:16;;;;;;;16.98;6.88;;;;;;;;;;6299382;22;19995;-91
2022/12/17 20:57:42;;;;;;;13.80;6.38;;;;;;;;;;6301572;22;20011;-91
2022/12/17 21:00:08;;;;;;;17.50;5.97;;;;;;;;;;6300248;22;20007;-92
2022/12/17 21:02:33;;;;;;;17.08;6.38;;;;;;;;;;6284582;22;20015;-92
2022/12/17 21:04:59;;;;;;;18.63;6.03;;;;;;;;;;6297577;22;20106;-91
2022/12/17 21:07:25;;;;;;;19.15;6.72;;;;;;;;;;6298305;22;20057;-90
2022/12/17 21:09:50;;;;;;;17.67;6.40;;;;;;;;;;6324986;22;20003;-92
2022/12/17 21:12:15;;;;;;;20.05;6.45;;;;;;;;;;6299680;22;20381;-91
2022/12/17 21:14:41;;;;;;;16.40;6.30;;;;;;;;;;6296482;22;19999;-90
2022/12/17 21:17:06;;;;;;;19.60;6.88;;;;;;;;;;6299523;22;20015;-91
2022/12/17 21:19:31;;;;;;;20.65;6.90;;;;;;;;;;6300286;22;20038;-92
2022/12/17 21:21:56;;;;;;;17.85;6.53;;;;;;;;;;6299620;22;20423;-91
2022/12/17 21:24:25;;;;;;;16.50;6.32;;;;;;;;;;6300846;22;20332;-91
2022/12/17 21:26:50;;;;;;;17.08;6.32;;;;;;;;;;6324513;22;20092;-92
2022/12/17 21:29:24;;;;;;;15.25;7.07;;;;;;;;;;5091735;27;20449;-90
2022/12/17 21:31:50;;;;;;;17.45;7.10;;;;;;;;;;5099870;28;20028;-90
2022/12/17 21:34:16;;;;;;;16.83;7.28;;;;;;;;;;5091002;28;20024;-90
2022/12/17 21:36:42;;;;;;;16.02;6.47;;;;;;;;;;5094354;28;20028;-91
2022/12/17 21:39:08;;;;;;;18.88;7.43;;;;;;;;;;5087735;28;20536;-92
2022/12/17 21:41:35;;;;;;;15.82;7.35;;;;;;;;;;5096337;28;20023;-92
2022/12/17 21:44:05;;;;;;;16.58;7.20;;;;;;;;;;5085327;28;20441;-91
2022/12/17 21:46:30;;;;;;;18.02;7.50;;;;;;;;;;5093871;28;20036;-91
2022/12/17 21:48:56;;;;;;;19.88;7.45;;;;;;;;;;5093845;28;20054;-91
2022/12/17 21:51:22;;;;;;;18.38;8.75;;;;;;;;;;5091939;28;20017;-91
2022/12/17 21:53:51;;;;;;;16.95;6.90;;;;;;;;;;5085212;28;20020;-92
2022/12/17 21:56:17;;;;;;;18.90;6.63;;;;;;;;;;5082352;28;20016;-91
2022/12/17 21:58:44;;;;;;;17.77;6.82;;;;;;;;;;5083451;28;20039;-93
2022/12/17 22:01:12;;;;;;;18.27;6.18;;;;;;;;;;5074159;28;20078;-92
2022/12/17 22:03:38;;;;;;;18.13;6.88;;;;;;;;;;5080454;28;20033;-91
2022/12/17 22:06:09;;;;;;;16.98;6.78;;;;;;;;;;5082238;28;20032;-91
2022/12/17 22:08:38;;;;;;;15.63;6.43;;;;;;;;;;5080467;28;20494;-91
2022/12/17 22:11:17;;;;;;;15.93;7.03;;;;;;;;;;5078222;28;20025;-89
2022/12/17 22:14:01;;;;;;;19.25;7.55;;;;;;;;;;5079120;28;20024;-89
2022/12/17 22:16:27;;;;;;;17.42;8.10;;;;;;;;;;5082283;28;20051;-88
2022/12/17 22:18:53;;;;;;;21.65;9.00;;;;;;;;;;5076835;28;20028;-88
2022/12/17 22:21:19;;;;;;;24.15;9.55;;;;;;;;;;5079029;28;20036;-91
2022/12/17 22:23:51;;;;;;;19.10;8.55;;;;;;;;;;5080751;28;20036;-91
2022/12/17 22:26:17;;;;;;;21.27;8.18;;;;;;;;;;5078441;28;20050;-91
2022/12/17 22:28:43;;;;;;;22.20;8.60;;;;;;;;;;5071601;28;20052;-92
2022/12/17 22:33:54;;;;;;;19.85;8.43;;;;;;;;;;5081947;28;20632;-91
2022/12/17 22:36:19;;;;;;;15.93;8.15;;;;;;;;;;5092433;28;20056;-92
2022/12/17 22:38:45;;;;;;;18.35;7.97;;;;;;;;;;5076024;28;20033;-91
2022/12/17 22:43:28;;;;;;;18.88;8.02;;;;;;;;;;5067112;28;20036;-92
2022/12/17 22:43:59;;;;;;;22.25;7.03;;;;;;;;;;5068195;28;20029;-91
2022/12/17 22:46:24;;;;;;;13.70;6.50;;;;;;;;;;5068266;28;20106;-91
2022/12/17 22:48:49;;;;;;;21.02;7.13;;;;;;;;;;5068838;28;20510;-91
2022/12/17 22:51:15;;;;;;;14.45;6.70;;;;;;;;;;5062471;28;20021;-91
2022/12/17 22:53:40;;;;;;;17.33;6.72;;;;;;;;;;5068992;28;20178;-92
2022/12/17 22:56:06;;;;;;;16.67;6.38;;;;;;;;;;5061113;28;20048;-91
2022/12/17 22:58:34;;;;;;;18.15;7.03;;;;;;;;;;5077230;28;20489;-92
2022/12/17 23:01:00;;;;;;;18.15;7.13;;;;;;;;;;5072368;28;20475;-92
2022/12/17 23:03:25;;;;;;;20.50;7.35;;;;;;;;;;5071105;28;20052;-91
2022/12/17 23:05:50;;;;;;;15.77;7.30;;;;;;;;;;5069288;28;20028;-91
2022/12/17 23:08:16;;;;;;;17.00;8.13;;;;;;;;;;5074587;28;20055;-93
2022/12/17 23:10:41;;;;;;;17.70;7.50;;;;;;;;;;5071265;28;20499;-91
2022/12/17 23:13:06;;;;;;;16.23;7.53;;;;;;;;;;5067926;28;20044;-89
2022/12/17 23:15:33;;;;;;;18.23;7.32;;;;;;;;;;5068815;28;20066;-92
2022/12/17 23:18:00;;;;;;;15.57;7.65;;;;;;;;;;5068844;28;20091;-91
2022/12/17 23:20:27;;;;;;;23.20;7.85;;;;;;;;;;5067414;28;20032;-90
2022/12/17 23:22:53;;;;;;;15.32;6.88;;;;;;;;;;5070847;28;20032;-89
2022/12/17 23:25:18;;;;;;;17.77;8.13;;;;;;;;;;5070180;28;20028;-90
2022/12/17 23:27:44;;;;;;;17.90;7.55;;;;;;;;;;5067535;28;20525;-91
2022/12/17 23:30:10;;;;;;;19.83;7.97;;;;;;;;;;5064139;28;20031;-91
2022/12/17 23:32:36;;;;;;;21.73;7.60;;;;;;;;;;5058545;28;20025;-90
2022/12/17 23:35:01;;;;;;;16.02;6.78;;;;;;;;;;5083272;28;20016;-91
2022/12/17 23:37:27;;;;;;;20.40;7.22;;;;;;;;;;5070475;28;20028;-91
2022/12/17 23:39:52;;;;;;;19.48;7.00;;;;;;;;;;5074903;28;20020;-90
2022/12/17 23:42:18;;;;;;;16.13;6.30;;;;;;;;;;5073207;28;20031;-91
2022/12/17 23:44:43;;;;;;;16.58;5.85;;;;;;;;;;5068752;28;20047;-91
2022/12/17 23:47:08;;;;;;;17.90;6.72;;;;;;;;;;5070093;28;20037;-91
2022/12/17 23:49:34;;;;;;;13.77;5.85;;;;;;;;;;5083079;28;20115;-91
2022/12/17 23:51:59;;;;;;;16.55;6.18;;;;;;;;;;5074714;28;20625;-91
2022/12/17 23:54:24;;;;;;;13.00;5.60;;;;;;;;;;5067891;28;20036;-91
2022/12/17 23:56:50;;;;;;;14.70;5.20;;;;;;;;;;5073698;28;20051;-90
2022/12/17 23:59:15;;;;;;;14.82;6.13;;;;;;;;;;5071941;28;20032;-93
